Time;durP1;ratioP1;P1;durP2;ratioP2;P2;SDS_P1;SDS_P2;PMS_P1;PMS_P2;Temp;Humidity;BMP_temperature;BMP_pressure;BME280_temperature;BME280_humidity;BME280_pressure;Samples;Min_cycle;Max_cycle;Signal;HPM_P1;HPM_P2
2022/02/17 00:00:46;;;;;;;2.00;0.80;;;13.20;99.90;;;;;;5052143;28;20721;-76
2022/02/17 00:03:12;;;;;;;2.20;1.00;;;13.20;99.90;;;;;;5051982;28;20528;-77
2022/02/17 00:05:38;;;;;;;2.20;1.00;;;13.20;99.90;;;;;;5052079;28;20195;-76
2022/02/17 00:08:05;;;;;;;2.10;0.90;;;13.00;99.90;;;;;;5051694;28;20234;-76
2022/02/17 00:10:31;;;;;;;2.77;1.20;;;12.90;99.90;;;;;;5052096;28;20418;-76
2022/02/17 00:12:58;;;;;;;2.37;1.03;;;12.80;99.90;;;;;;5051822;28;20425;-76
2022/02/17 00:15:26;;;;;;;2.17;0.87;;;12.70;99.90;;;;;;5051800;28;20463;-76
2022/02/17 00:17:52;;;;;;;2.20;1.00;;;12.70;99.90;;;;;;5051564;28;20476;-76
2022/02/17 00:20:18;;;;;;;2.27;1.03;;;12.70;99.90;;;;;;5051927;28;20410;-76
2022/02/17 00:22:43;;;;;;;2.93;1.03;;;12.60;99.90;;;;;;5051691;28;20429;-76
2022/02/17 00:25:10;;;;;;;2.30;1.10;;;12.60;99.90;;;;;;5051721;28;20201;-77
2022/02/17 00:27:40;;;;;;;2.30;0.90;;;12.60;99.90;;;;;;5051385;28;20206;-76
2022/02/17 00:30:08;;;;;;;2.30;1.00;;;12.60;99.90;;;;;;5051378;28;20426;-76
2022/02/17 00:32:35;;;;;;;2.60;0.87;;;12.60;99.90;;;;;;5051562;28;20513;-77
2022/02/17 00:35:01;;;;;;;2.10;0.80;;;12.70;99.90;;;;;;5051420;28;20445;-77
2022/02/17 00:37:27;;;;;;;2.50;0.80;;;12.80;99.90;;;;;;5051171;28;20775;-77
2022/02/17 00:39:53;;;;;;;3.10;0.90;;;12.90;99.90;;;;;;5050299;28;20917;-76
2022/02/17 00:42:19;;;;;;;3.27;1.43;;;12.80;99.90;;;;;;5051464;28;20921;-77
2022/02/17 00:44:47;;;;;;;2.07;0.90;;;12.70;99.90;;;;;;5051105;28;20190;-77
2022/02/17 00:47:13;;;;;;;2.60;0.93;;;12.70;99.90;;;;;;5051003;28;20200;-76
2022/02/17 00:49:39;;;;;;;2.60;1.00;;;12.70;99.90;;;;;;5051212;28;20446;-77
2022/02/17 00:52:06;;;;;;;4.93;1.30;;;12.80;99.90;;;;;;5051219;28;20423;-76
2022/02/17 00:54:32;;;;;;;4.30;1.17;;;12.70;99.90;;;;;;5051146;28;20457;-76
2022/02/17 00:56:58;;;;;;;4.43;1.13;;;12.70;99.90;;;;;;5050726;28;20473;-76
2022/02/17 00:59:23;;;;;;;4.10;1.73;;;12.70;99.90;;;;;;5051055;28;20271;-76
2022/02/17 01:01:49;;;;;;;4.20;1.40;;;12.70;99.90;;;;;;5051128;28;20259;-76
2022/02/17 01:04:15;;;;;;;3.20;1.67;;;12.80;99.90;;;;;;5050957;28;20176;-76
2022/02/17 01:06:41;;;;;;;7.37;2.00;;;12.80;99.90;;;;;;5050694;28;20206;-77
2022/02/17 01:09:09;;;;;;;3.13;0.90;;;12.80;99.90;;;;;;5050927;28;20434;-76
2022/02/17 01:11:34;;;;;;;2.67;1.10;;;12.70;99.90;;;;;;5052088;28;20414;-77
2022/02/17 01:14:00;;;;;;;2.40;1.03;;;12.80;99.90;;;;;;5050743;28;20426;-76
2022/02/17 01:16:26;;;;;;;2.47;1.17;;;12.80;99.90;;;;;;5050567;28;20286;-76
2022/02/17 01:18:52;;;;;;;2.67;1.00;;;12.70;99.90;;;;;;5050668;28;20215;-76
2022/02/17 01:21:18;;;;;;;3.33;0.90;;;12.80;99.90;;;;;;5050738;28;20505;-76
2022/02/17 01:23:44;;;;;;;2.47;1.03;;;12.80;99.90;;;;;;5050823;28;20825;-77
2022/02/17 01:26:11;;;;;;;2.67;1.07;;;12.90;99.90;;;;;;5050377;28;20202;-76
2022/02/17 01:28:37;;;;;;;4.03;1.40;;;12.90;99.90;;;;;;5050491;28;20539;-76
2022/02/17 01:31:03;;;;;;;2.43;0.97;;;12.90;99.90;;;;;;5050604;28;20425;-76
2022/02/17 01:33:29;;;;;;;2.50;1.17;;;12.90;99.90;;;;;;5050635;28;20176;-76
2022/02/17 01:35:54;;;;;;;4.30;1.60;;;12.80;99.90;;;;;;5050266;28;20225;-77
2022/02/17 01:38:21;;;;;;;7.00;2.40;;;12.70;99.90;;;;;;5050450;28;20713;-77
2022/02/17 01:40:47;;;;;;;4.40;1.20;;;12.70;99.90;;;;;;5050306;28;20186;-77
2022/02/17 01:43:16;;;;;;;7.17;1.80;;;12.70;99.90;;;;;;5050472;28;20425;-76
2022/02/17 01:45:45;;;;;;;3.93;1.70;;;12.80;99.90;;;;;;5050401;28;20434;-77
2022/02/17 01:48:12;;;;;;;6.03;1.50;;;12.90;99.90;;;;;;5050501;28;20422;-77
2022/02/17 01:50:40;;;;;;;5.53;2.13;;;12.90;99.90;;;;;;5049948;28;20424;-77
2022/02/17 01:53:11;;;;;;;5.07;2.60;;;12.60;99.90;;;;;;5050313;28;20885;-77
2022/02/17 01:55:38;;;;;;;4.33;2.20;;;12.40;99.90;;;;;;5050482;28;20452;-77
2022/02/17 01:58:04;;;;;;;5.50;1.70;;;12.40;99.90;;;;;;5050075;28;20485;-76
2022/02/17 02:00:32;;;;;;;7.23;1.90;;;12.40;99.90;;;;;;5050307;28;20830;-76
2022/02/17 02:02:57;;;;;;;5.00;2.07;;;12.40;99.90;;;;;;5050463;28;20421;-76
2022/02/17 02:05:23;;;;;;;4.43;1.53;;;12.40;99.90;;;;;;5050358;28;20426;-76
2022/02/17 02:07:49;;;;;;;4.33;2.50;;;12.40;99.90;;;;;;5049775;28;20215;-76
2022/02/17 02:10:15;;;;;;;8.00;2.10;;;12.40;99.90;;;;;;5050341;28;20180;-76
2022/02/17 02:12:41;;;;;;;9.87;2.37;;;12.40;99.90;;;;;;5050095;28;20179;-75
2022/02/17 02:15:07;;;;;;;7.40;2.00;;;12.40;99.90;;;;;;5050145;28;20933;-76
2022/02/17 02:17:34;;;;;;;6.17;2.20;;;12.40;99.90;;;;;;5049770;28;20591;-76
2022/02/17 02:20:02;;;;;;;6.50;2.03;;;12.40;99.90;;;;;;5050155;28;20513;-76
2022/02/17 02:22:30;;;;;;;4.73;2.03;;;12.40;99.90;;;;;;5049954;28;20501;-76
2022/02/17 02:24:58;;;;;;;7.07;2.60;;;12.40;99.90;;;;;;5050127;28;20856;-77
2022/02/17 02:27:25;;;;;;;9.37;2.33;;;12.40;99.90;;;;;;5049650;28;20480;-76
2022/02/17 02:29:50;;;;;;;11.23;2.70;;;12.30;99.90;;;;;;5050178;28;20767;-76
2022/02/17 02:32:16;;;;;;;6.70;1.90;;;12.20;99.90;;;;;;5049844;28;20433;-76
2022/02/17 02:34:42;;;;;;;13.47;2.93;;;12.20;99.90;;;;;;5049943;28;20183;-77
2022/02/17 02:37:08;;;;;;;9.70;2.50;;;12.20;99.90;;;;;;5049678;28;20218;-76
2022/02/17 02:39:34;;;;;;;12.43;2.87;;;12.10;99.90;;;;;;5049990;28;20183;-77
2022/02/17 02:42:00;;;;;;;9.67;3.80;;;12.10;99.90;;;;;;5049895;28;20183;-75
2022/02/17 02:44:27;;;;;;;10.57;2.63;;;12.10;99.90;;;;;;5049995;28;20454;-76
2022/02/17 02:46:53;;;;;;;8.93;2.87;;;12.10;99.90;;;;;;5049664;28;20547;-75
2022/02/17 02:49:19;;;;;;;10.70;2.97;;;12.10;99.90;;;;;;5049896;28;20418;-76
2022/02/17 02:51:45;;;;;;;14.73;3.37;;;12.10;99.90;;;;;;5049932;28;20463;-77
2022/02/17 02:54:11;;;;;;;4.50;2.00;;;12.10;99.90;;;;;;5049806;28;20496;-76
2022/02/17 02:56:36;;;;;;;9.27;2.67;;;12.10;99.90;;;;;;5049506;28;20206;-77
2022/02/17 02:59:03;;;;;;;11.50;3.77;;;12.10;99.90;;;;;;5049687;28;20299;-76
2022/02/17 03:01:29;;;;;;;8.47;2.60;;;12.10;99.90;;;;;;5049795;28;20176;-77
2022/02/17 03:03:54;;;;;;;7.07;2.63;;;12.10;99.90;;;;;;5051673;28;20418;-75
2022/02/17 03:06:20;;;;;;;11.00;2.80;;;12.10;99.90;;;;;;5053060;28;20200;-76
2022/02/17 03:08:46;;;;;;;7.97;3.57;;;12.10;99.90;;;;;;5052919;28;20230;-77
2022/02/17 03:13:55;;;;;;;17.53;3.40;;;12.00;99.90;;;;;;5081243;28;20218;-79
2022/02/17 03:16:21;;;;;;;10.30;3.47;;;12.00;99.90;;;;;;5080429;28;20464;-78
2022/02/17 03:18:47;;;;;;;8.70;3.10;;;11.90;99.90;;;;;;5097142;28;20466;-79
2022/02/17 03:21:13;;;;;;;10.23;3.00;;;11.90;99.90;;;;;;5099077;28;20175;-79
2022/02/17 03:23:38;;;;;;;12.03;3.47;;;11.90;99.90;;;;;;5097739;28;20182;-78
2022/02/17 03:26:04;;;;;;;13.93;3.57;;;11.90;99.90;;;;;;5098451;28;20199;-79
2022/02/17 03:28:30;;;;;;;13.27;3.03;;;11.90;99.90;;;;;;5097669;28;20179;-80
2022/02/17 03:30:56;;;;;;;6.47;3.33;;;11.90;99.90;;;;;;5097494;28;20220;-79
2022/02/17 03:33:21;;;;;;;10.90;3.20;;;11.90;99.90;;;;;;5098246;28;20183;-79
2022/02/17 03:35:47;;;;;;;7.17;2.97;;;11.90;99.90;;;;;;5096811;28;20256;-78
2022/02/17 03:38:14;;;;;;;10.70;3.10;;;12.00;99.90;;;;;;5097447;28;20218;-78
2022/02/17 03:40:41;;;;;;;10.47;3.47;;;12.00;99.90;;;;;;5097482;28;20421;-78
2022/02/17 03:43:07;;;;;;;10.93;3.53;;;11.90;99.90;;;;;;5096876;28;20422;-79
2022/02/17 03:45:32;;;;;;;10.40;3.10;;;11.90;99.90;;;;;;5097094;28;20429;-79
2022/02/17 03:47:58;;;;;;;15.30;3.17;;;11.90;99.90;;;;;;5096496;28;20183;-78
2022/02/17 03:50:24;;;;;;;9.07;3.30;;;11.90;99.90;;;;;;5097046;28;20213;-78
2022/02/17 03:52:50;;;;;;;14.03;3.07;;;11.90;99.90;;;;;;5095838;28;20221;-78
2022/02/17 03:55:16;;;;;;;14.93;3.00;;;11.90;99.90;;;;;;5095938;28;20183;-78
2022/02/17 03:57:46;;;;;;;18.47;3.13;;;11.80;99.90;;;;;;5096721;28;20256;-79
2022/02/17 04:00:13;;;;;;;6.40;2.50;;;11.80;99.90;;;;;;5096446;28;20428;-79
2022/02/17 04:02:38;;;;;;;11.50;3.50;;;11.80;99.90;;;;;;5095131;28;20882;-78
2022/02/17 04:05:05;;;;;;;8.17;2.73;;;11.80;99.90;;;;;;5096087;28;20418;-78
2022/02/17 04:07:31;;;;;;;19.53;3.60;;;11.70;99.90;;;;;;5095166;28;20202;-77
2022/02/17 04:09:57;;;;;;;11.53;3.30;;;11.70;99.90;;;;;;5095271;28;20436;-78
2022/02/17 04:12:23;;;;;;;14.90;4.00;;;11.70;99.90;;;;;;5095238;28;20195;-78
2022/02/17 04:14:48;;;;;;;8.00;3.10;;;11.70;99.90;;;;;;5095718;28;20418;-78
2022/02/17 04:17:15;;;;;;;13.47;3.63;;;11.60;99.90;;;;;;5095291;28;20276;-78
2022/02/17 04:19:41;;;;;;;11.10;3.63;;;11.60;99.90;;;;;;5095644;28;20416;-78
2022/02/17 04:22:08;;;;;;;13.00;4.00;;;11.60;99.90;;;;;;5096378;28;20422;-77
2022/02/17 04:24:34;;;;;;;10.47;3.40;;;11.60;99.90;;;;;;5096213;28;20182;-79
2022/02/17 04:26:59;;;;;;;8.70;2.40;;;11.60;99.90;;;;;;5095259;28;20881;-79
2022/02/17 04:29:25;;;;;;;9.27;2.90;;;11.60;99.90;;;;;;5093711;28;20175;-78
2022/02/17 04:31:51;;;;;;;8.17;3.90;;;11.60;99.90;;;;;;5093638;28;20189;-78
2022/02/17 04:34:17;;;;;;;14.33;3.87;;;11.50;99.90;;;;;;5092340;28;20182;-80
2022/02/17 04:36:43;;;;;;;9.70;3.33;;;11.50;99.90;;;;;;5093196;28;20445;-77
2022/02/17 04:39:08;;;;;;;14.93;3.30;;;11.40;99.90;;;;;;5093265;28;20225;-79
2022/02/17 04:44:18;;;;;;;9.20;2.93;;;11.40;99.90;;;;;;5076912;28;20815;-78
2022/02/17 04:46:44;;;;;;;10.23;3.50;;;11.40;99.90;;;;;;5094249;28;20951;-78
2022/02/17 04:49:10;;;;;;;11.80;3.23;;;11.40;99.90;;;;;;5091786;28;20429;-78
2022/02/17 04:51:36;;;;;;;13.53;3.07;;;11.40;99.90;;;;;;5092710;28;20189;-78
2022/02/17 04:54:02;;;;;;;12.00;3.27;;;11.40;99.90;;;;;;5091932;28;20417;-78
2022/02/17 04:56:28;;;;;;;15.20;3.70;;;11.40;99.90;;;;;;5091746;28;20206;-79
2022/02/17 04:58:53;;;;;;;17.73;3.90;;;11.40;99.90;;;;;;5091654;28;20198;-79
2022/02/17 05:01:19;;;;;;;13.97;3.67;;;11.40;99.90;;;;;;5094132;28;20179;-80
2022/02/17 05:03:48;;;;;;;10.03;3.80;;;11.40;99.90;;;;;;5094933;28;20175;-79
2022/02/17 05:06:14;;;;;;;11.13;3.20;;;11.30;99.90;;;;;;5095393;28;20217;-80
2022/02/17 05:08:40;;;;;;;11.60;3.30;;;11.30;99.90;;;;;;5095972;28;20417;-79
2022/02/17 05:11:06;;;;;;;10.80;3.63;;;11.30;99.90;;;;;;5095950;28;20214;-79
2022/02/17 05:13:32;;;;;;;14.80;3.53;;;11.30;99.90;;;;;;5096927;28;20441;-79
2022/02/17 05:15:58;;;;;;;12.37;3.63;;;11.30;99.90;;;;;;5096268;28;20755;-79
2022/02/17 05:18:23;;;;;;;13.93;3.63;;;11.10;99.90;;;;;;5095830;28;20464;-80
2022/02/17 05:20:49;;;;;;;15.33;4.57;;;11.10;99.90;;;;;;5095824;28;20211;-79
2022/02/17 05:23:15;;;;;;;14.17;3.30;;;11.00;99.90;;;;;;5095389;28;20179;-79
2022/02/17 05:25:41;;;;;;;13.27;4.03;;;11.00;99.90;;;;;;5093579;28;20227;-79
2022/02/17 05:28:09;;;;;;;8.90;3.10;;;10.70;99.90;;;;;;5094142;28;20241;-79
2022/02/17 05:30:40;;;;;;;11.40;4.37;;;10.50;99.90;;;;;;5096734;28;20417;-80
2022/02/17 05:33:07;;;;;;;13.20;3.13;;;10.30;99.90;;;;;;5096039;28;20471;-80
2022/02/17 05:35:33;;;;;;;13.73;3.40;;;10.30;99.90;;;;;;5096143;28;20485;-80
2022/02/17 05:37:59;;;;;;;15.53;4.30;;;10.30;99.90;;;;;;5096038;28;20504;-80
2022/02/17 05:40:25;;;;;;;13.33;3.90;;;10.30;99.90;;;;;;5095104;28;20178;-79
2022/02/17 05:42:50;;;;;;;14.73;4.57;;;10.20;99.90;;;;;;5080303;28;20175;-80
2022/02/17 05:45:16;;;;;;;13.83;3.73;;;10.30;99.90;;;;;;5095430;28;20182;-80
2022/02/17 05:47:42;;;;;;;14.50;3.80;;;10.30;99.90;;;;;;5095027;28;20187;-79
2022/02/17 05:50:09;;;;;;;14.43;5.00;;;10.30;99.90;;;;;;5094238;28;20197;-79
2022/02/17 05:52:35;;;;;;;12.03;4.00;;;10.40;99.90;;;;;;5094478;28;20254;-79
2022/02/17 05:55:01;;;;;;;14.13;4.20;;;10.30;99.90;;;;;;5095273;28;20512;-79
2022/02/17 05:57:27;;;;;;;14.17;4.07;;;10.30;99.90;;;;;;5094436;28;20504;-79
2022/02/17 05:59:53;;;;;;;12.43;4.20;;;10.20;99.90;;;;;;5095380;28;20482;-78
2022/02/17 06:02:18;;;;;;;16.67;4.17;;;10.10;99.90;;;;;;5095143;28;20183;-79
2022/02/17 06:04:44;;;;;;;15.10;3.73;;;10.10;99.90;;;;;;5094328;28;20183;-79
2022/02/17 06:07:13;;;;;;;17.83;4.67;;;10.10;99.90;;;;;;5092656;28;20252;-80
2022/02/17 06:09:40;;;;;;;18.40;4.10;;;10.00;99.90;;;;;;5093075;28;20938;-78
2022/02/17 06:12:07;;;;;;;14.63;4.43;;;9.80;99.90;;;;;;5093298;28;20444;-79
2022/02/17 06:14:33;;;;;;;11.70;4.43;;;9.70;99.90;;;;;;5094140;28;20468;-79
2022/02/17 06:16:58;;;;;;;15.43;4.10;;;9.70;99.90;;;;;;5093582;28;20453;-79
2022/02/17 06:19:24;;;;;;;13.87;4.07;;;9.70;99.90;;;;;;5094053;28;20421;-79
2022/02/17 06:21:50;;;;;;;19.03;5.03;;;9.70;99.90;;;;;;5092759;28;20215;-79
2022/02/17 06:24:16;;;;;;;16.67;4.20;;;9.70;99.90;;;;;;5092289;28;20179;-79
2022/02/17 06:26:41;;;;;;;13.10;4.37;;;9.70;99.90;;;;;;5093423;28;20325;-79
2022/02/17 06:29:07;;;;;;;14.53;3.70;;;9.80;99.90;;;;;;5093143;28;20638;-79
2022/02/17 06:31:33;;;;;;;13.03;4.50;;;9.80;99.90;;;;;;5092578;28;20180;-78
2022/02/17 06:33:59;;;;;;;19.13;4.30;;;9.80;99.90;;;;;;5092641;28;20198;-79
2022/02/17 06:36:26;;;;;;;17.70;4.50;;;10.00;99.90;;;;;;5092533;28;20642;-78
2022/02/17 06:38:51;;;;;;;14.70;4.70;;;9.90;99.90;;;;;;5095783;28;20205;-79
2022/02/17 06:41:21;;;;;;;20.23;6.77;;;9.90;99.90;;;;;;5096133;28;20915;-78
2022/02/17 06:43:47;;;;;;;19.00;4.87;;;9.90;99.90;;;;;;5095917;28;20425;-79
2022/02/17 06:46:13;;;;;;;19.33;5.20;;;9.90;99.90;;;;;;5095410;28;20444;-78
2022/02/17 06:48:39;;;;;;;16.50;3.80;;;9.90;99.90;;;;;;5095574;28;20824;-79
2022/02/17 06:51:05;;;;;;;18.30;3.87;;;10.00;99.90;;;;;;5096061;28;20190;-79
2022/02/17 06:53:30;;;;;;;9.40;3.73;;;10.00;99.90;;;;;;5095278;28;20428;-78
2022/02/17 06:55:56;;;;;;;19.83;5.73;;;10.00;99.90;;;;;;5095001;28;20585;-79
2022/02/17 06:58:22;;;;;;;11.90;4.23;;;9.90;99.90;;;;;;5095807;28;20212;-78
2022/02/17 07:00:49;;;;;;;15.70;4.50;;;9.90;99.90;;;;;;5095956;28;20553;-79
2022/02/17 07:03:15;;;;;;;22.20;4.77;;;10.00;99.90;;;;;;5095582;28;20186;-78
2022/02/17 07:05:40;;;;;;;16.40;4.07;;;10.00;99.90;;;;;;5095797;28;20435;-78
2022/02/17 07:08:07;;;;;;;16.70;5.17;;;10.10;99.90;;;;;;5094402;28;20927;-78
2022/02/17 07:13:18;;;;;;;13.87;4.07;;;10.20;99.90;;;;;;5080695;28;20443;-79
2022/02/17 07:15:46;;;;;;;16.37;5.00;;;10.30;99.90;;;;;;5095397;28;20445;-78
2022/02/17 07:18:12;;;;;;;12.23;4.63;;;10.20;99.90;;;;;;5095214;28;20462;-78
2022/02/17 07:20:40;;;;;;;17.03;5.90;;;10.10;99.90;;;;;;5095025;28;20451;-79
2022/02/17 07:23:06;;;;;;;19.00;4.70;;;10.10;99.90;;;;;;5094792;28;20456;-78
2022/02/17 07:25:32;;;;;;;18.70;5.50;;;10.10;99.90;;;;;;5096049;28;20420;-78
2022/02/17 07:27:58;;;;;;;12.43;3.67;;;10.10;99.90;;;;;;5095106;28;20418;-78
2022/02/17 07:30:24;;;;;;;29.90;6.40;;;10.20;99.90;;;;;;5078845;28;20179;-78
2022/02/17 07:32:53;;;;;;;14.00;4.20;;;10.30;99.90;;;;;;5095701;28;20421;-78
2022/02/17 07:35:19;;;;;;;13.10;4.20;;;10.30;99.90;;;;;;5094182;28;20420;-78
2022/02/17 07:37:45;;;;;;;13.03;4.70;;;10.30;99.90;;;;;;5095845;28;20453;-80
2022/02/17 07:40:12;;;;;;;12.33;4.60;;;10.30;99.90;;;;;;5096795;28;20774;-79
2022/02/17 07:42:42;;;;;;;16.03;3.60;;;10.20;99.90;;;;;;5096925;28;20179;-79
2022/02/17 07:45:09;;;;;;;18.03;3.90;;;10.10;99.90;;;;;;5096182;28;20519;-79
2022/02/17 07:47:36;;;;;;;12.80;4.83;;;10.20;99.90;;;;;;5095547;28;20445;-79
2022/02/17 07:50:03;;;;;;;17.30;4.97;;;10.20;99.90;;;;;;5094562;28;20990;-79
2022/02/17 07:52:29;;;;;;;17.33;4.73;;;10.30;99.90;;;;;;5096253;28;20464;-81
2022/02/17 07:54:54;;;;;;;17.33;4.73;;;10.40;99.90;;;;;;5094627;28;20790;-79
2022/02/17 07:57:20;;;;;;;21.60;4.93;;;10.40;99.90;;;;;;5095493;28;20289;-81
2022/02/17 07:59:47;;;;;;;12.20;3.83;;;10.30;99.90;;;;;;5097969;28;20195;-81
2022/02/17 08:02:12;;;;;;;20.63;4.33;;;10.30;99.90;;;;;;5097342;28;20294;-78
2022/02/17 08:04:38;;;;;;;19.53;5.10;;;10.40;99.90;;;;;;5098032;28;20433;-78
2022/02/17 08:07:05;;;;;;;14.73;4.37;;;10.50;99.90;;;;;;5096959;28;20199;-78
2022/02/17 08:09:32;;;;;;;15.87;4.77;;;10.60;99.90;;;;;;5096807;28;20485;-78
2022/02/17 08:11:58;;;;;;;12.50;4.67;;;10.50;99.90;;;;;;5096639;28;20441;-78
2022/02/17 08:14:24;;;;;;;15.73;4.87;;;10.50;99.90;;;;;;5097244;28;20410;-78
2022/02/17 08:16:49;;;;;;;12.60;4.00;;;10.50;99.90;;;;;;5097471;28;20445;-78
2022/02/17 08:19:15;;;;;;;16.80;5.27;;;10.60;99.90;;;;;;5097642;28;20673;-78
2022/02/17 08:21:42;;;;;;;11.53;4.50;;;10.80;99.90;;;;;;5103763;28;20175;-79
2022/02/17 08:24:08;;;;;;;10.90;3.60;;;10.90;99.90;;;;;;5101082;28;20266;-80
2022/02/17 08:26:34;;;;;;;17.07;4.60;;;10.90;99.90;;;;;;5100688;28;20473;-80
2022/02/17 08:28:59;;;;;;;15.40;4.67;;;10.90;99.90;;;;;;5098819;28;20182;-79
2022/02/17 08:31:26;;;;;;;23.67;6.10;;;10.70;99.90;;;;;;5083932;28;20179;-80
2022/02/17 08:33:52;;;;;;;21.97;5.80;;;10.30;99.90;;;;;;5100188;28;20631;-79
2022/02/17 08:36:18;;;;;;;20.37;6.10;;;10.10;99.90;;;;;;5101081;28;20432;-79
2022/02/17 08:38:45;;;;;;;17.13;4.70;;;9.90;99.90;;;;;;5104415;28;20453;-80
2022/02/17 08:41:11;;;;;;;21.80;4.17;;;9.80;99.90;;;;;;5103805;28;20421;-78
2022/02/17 08:43:37;;;;;;;14.27;5.03;;;9.80;99.90;;;;;;5100946;28;20491;-78
2022/02/17 08:46:04;;;;;;;19.17;4.80;;;9.90;99.90;;;;;;5100070;28;20851;-79
2022/02/17 08:48:29;;;;;;;11.13;3.70;;;9.90;99.90;;;;;;5099131;28;20428;-80
2022/02/17 08:50:56;;;;;;;12.50;3.93;;;10.10;99.90;;;;;;5100962;28;20421;-78
2022/02/17 08:53:22;;;;;;;18.13;4.77;;;10.30;99.90;;;;;;5100641;28;20202;-80
2022/02/17 08:55:47;;;;;;;23.97;4.83;;;10.40;99.90;;;;;;5101480;28;20487;-79
2022/02/17 08:58:13;;;;;;;15.80;4.80;;;10.60;99.90;;;;;;5102002;28;20520;-79
2022/02/17 09:00:40;;;;;;;20.40;5.30;;;10.70;99.90;;;;;;5099705;28;20194;-78
2022/02/17 09:03:06;;;;;;;16.27;5.00;;;10.70;99.90;;;;;;5098555;28;20431;-79
2022/02/17 09:05:33;;;;;;;20.37;4.83;;;10.90;99.90;;;;;;5095590;28;20417;-78
2022/02/17 09:07:59;;;;;;;17.93;4.17;;;10.90;99.90;;;;;;5096297;28;20425;-79
2022/02/17 09:10:26;;;;;;;11.97;3.80;;;11.00;99.90;;;;;;5094784;28;20833;-79
2022/02/17 09:12:52;;;;;;;14.93;4.30;;;11.10;99.90;;;;;;5094621;28;20925;-77
2022/02/17 09:15:20;;;;;;;16.10;4.43;;;11.10;99.90;;;;;;5124895;22;20556;-83
2022/02/17 09:17:46;;;;;;;16.10;5.40;;;11.10;99.90;;;;;;5029843;28;20283;-83
2022/02/17 09:20:13;;;;;;;15.80;4.67;;;11.20;99.90;;;;;;5030961;28;20463;-82
2022/02/17 09:22:39;;;;;;;11.77;4.40;;;11.50;99.90;;;;;;5031086;28;20492;-83
2022/02/17 09:25:05;;;;;;;18.57;4.67;;;11.50;99.90;;;;;;5028194;28;20880;-84
2022/02/17 09:27:31;;;;;;;15.47;5.50;;;11.30;99.90;;;;;;5032021;28;20415;-84
2022/02/17 09:29:57;;;;;;;7.90;3.33;;;11.40;99.90;;;;;;5032275;28;20568;-83
2022/02/17 09:32:23;;;;;;;8.77;3.23;;;11.30;99.90;;;;;;5030252;28;20275;-84
2022/02/17 09:34:49;;;;;;;13.20;4.00;;;11.10;99.90;;;;;;5030463;28;20554;-83
2022/02/17 09:37:15;;;;;;;11.83;4.70;;;11.00;99.90;;;;;;5030069;28;20302;-84
2022/02/17 09:39:41;;;;;;;10.53;4.00;;;11.10;99.90;;;;;;5031871;28;20513;-84
2022/02/17 09:42:06;;;;;;;9.93;3.40;;;11.20;99.90;;;;;;5030389;28;20272;-84
2022/02/17 09:44:35;;;;;;;14.47;3.57;;;11.40;99.90;;;;;;5031323;28;20207;-85
2022/02/17 09:47:01;;;;;;;13.70;3.63;;;11.40;99.90;;;;;;5030139;28;20195;-84
2022/02/17 09:49:30;;;;;;;7.47;3.30;;;11.50;99.90;;;;;;5030499;28;20454;-85
2022/02/17 09:51:56;;;;;;;8.60;2.97;;;11.50;99.90;;;;;;5031756;28;20414;-85
2022/02/17 09:54:22;;;;;;;12.67;3.20;;;11.70;99.90;;;;;;5030247;28;20427;-84
2022/02/17 09:56:48;;;;;;;12.47;3.53;;;11.70;99.90;;;;;;5029536;28;20423;-86
2022/02/17 09:59:18;;;;;;;9.27;3.10;;;11.90;99.90;;;;;;5031618;28;20481;-85
2022/02/17 10:02:02;;;;;;;12.80;4.10;;;11.80;99.90;;;;;;5032416;28;20173;-84
2022/02/17 10:04:29;;;;;;;10.73;4.23;;;11.70;99.90;;;;;;5030651;28;20415;-84
2022/02/17 10:06:57;;;;;;;9.33;3.00;;;11.90;99.90;;;;;;5030105;28;20422;-84
2022/02/17 10:09:43;;;;;;;10.40;3.90;;;12.10;99.90;;;;;;5029946;28;20451;-84
2022/02/17 10:12:10;;;;;;;15.03;4.10;;;12.20;99.90;;;;;;5031263;28;20461;-84
2022/02/17 10:14:36;;;;;;;9.87;3.07;;;12.20;99.90;;;;;;5034483;28;20433;-85
2022/02/17 10:17:04;;;;;;;9.40;2.67;;;12.10;99.90;;;;;;5034001;28;20421;-84
2022/02/17 10:19:40;;;;;;;15.50;3.60;;;12.10;99.90;;;;;;5035739;28;20446;-85
2022/02/17 10:22:14;;;;;;;15.30;4.00;;;12.20;99.90;;;;;;5035238;28;20427;-85
2022/02/17 10:24:49;;;;;;;12.70;2.93;;;12.20;99.90;;;;;;5035572;28;20426;-85
2022/02/17 10:27:22;;;;;;;8.63;3.23;;;12.10;99.90;;;;;;5033675;28;20423;-86
2022/02/17 10:30:12;;;;;;;10.73;2.90;;;12.20;99.90;;;;;;5034355;28;20426;-84
2022/02/17 10:32:56;;;;;;;12.10;2.97;;;12.10;99.90;;;;;;5035170;28;20403;-84
2022/02/17 10:35:23;;;;;;;9.17;2.30;;;12.30;99.90;;;;;;5029621;28;20463;-83
2022/02/17 10:37:50;;;;;;;13.60;2.63;;;12.50;99.90;;;;;;5030266;28;20452;-84
2022/02/17 10:40:22;;;;;;;9.43;3.10;;;12.50;99.90;;;;;;5019463;28;20436;-83
2022/02/17 10:43:11;;;;;;;13.30;3.43;;;12.50;99.90;;;;;;5015302;28;20423;-84
2022/02/17 10:45:42;;;;;;;10.73;2.30;;;12.50;99.90;;;;;;5028360;28;20442;-85
2022/02/17 10:48:22;;;;;;;7.20;2.90;;;12.70;99.90;;;;;;5035111;28;20545;-84
2022/02/17 10:51:02;;;;;;;13.93;3.80;;;12.80;99.90;;;;;;5033976;28;20441;-84
2022/02/17 10:53:30;;;;;;;10.33;2.77;;;13.00;99.90;;;;;;5030488;28;20855;-83
2022/02/17 10:56:00;;;;;;;7.27;2.43;;;12.90;99.90;;;;;;5014830;28;20518;-85
2022/02/17 10:58:29;;;;;;;6.00;2.20;;;13.10;99.90;;;;;;5013789;28;20562;-84
2022/02/17 11:01:01;;;;;;;5.97;2.10;;;13.00;99.90;;;;;;5013750;28;20797;-83
2022/02/17 11:03:29;;;;;;;6.27;2.07;;;13.20;99.90;;;;;;5013878;28;20806;-85
2022/02/17 11:05:55;;;;;;;5.73;2.20;;;14.20;99.90;;;;;;5013322;28;20472;-86
2022/02/17 11:08:20;;;;;;;5.43;1.80;;;14.70;99.90;;;;;;5013809;28;20806;-84
2022/02/17 11:10:46;;;;;;;8.90;2.20;;;16.10;98.30;;;;;;5013137;28;20436;-85
2022/02/17 11:13:20;;;;;;;9.13;2.13;;;15.90;94.70;;;;;;5014947;28;20184;-85
2022/02/17 11:15:47;;;;;;;7.00;2.70;;;16.60;92.60;;;;;;5014309;28;20305;-87
2022/02/17 11:18:15;;;;;;;6.63;1.90;;;16.90;88.00;;;;;;5013388;28;20471;-85
2022/02/17 11:20:42;;;;;;;7.17;2.40;;;17.20;84.20;;;;;;5022913;28;20427;-84
2022/02/17 11:23:08;;;;;;;4.73;2.30;;;16.40;87.60;;;;;;5029798;28;20427;-85
2022/02/17 11:25:39;;;;;;;11.53;2.83;;;16.00;83.70;;;;;;5031223;28;20439;-85
2022/02/17 11:28:09;;;;;;;5.50;2.37;;;16.50;89.40;;;;;;5026770;28;20281;-84
2022/02/17 11:30:36;;;;;;;6.13;2.00;;;17.20;85.10;;;;;;5032920;28;20517;-83
2022/02/17 11:33:23;;;;;;;8.57;2.90;;;18.10;81.70;;;;;;5032866;28;20514;-86
2022/02/17 11:35:50;;;;;;;6.07;1.90;;;18.90;79.70;;;;;;5031855;28;20560;-84
2022/02/17 11:38:31;;;;;;;12.83;2.83;;;20.40;67.60;;;;;;5026663;28;20466;-85
2022/02/17 11:41:13;;;;;;;11.23;2.50;;;20.20;61.30;;;;;;5031596;28;20434;-83
2022/02/17 11:43:47;;;;;;;6.40;3.07;;;19.20;59.60;;;;;;5034190;28;20407;-84
2022/02/17 11:46:14;;;;;;;10.00;4.17;;;19.10;59.00;;;;;;5032121;28;20447;-84
2022/02/17 11:48:44;;;;;;;5.93;2.90;;;19.90;59.00;;;;;;5033972;28;20794;-84
2022/02/17 11:51:16;;;;;;;8.63;2.47;;;19.20;57.40;;;;;;5033881;28;20696;-85
2022/02/17 11:53:44;;;;;;;7.17;2.80;;;17.50;58.70;;;;;;5032573;28;20446;-85
2022/02/17 11:56:16;;;;;;;8.60;2.47;;;16.00;60.40;;;;;;5025229;28;20544;-84
2022/02/17 11:58:52;;;;;;;8.77;2.23;;;15.30;68.20;;;;;;5012333;28;20497;-84
2022/02/17 12:01:33;;;;;;;6.03;2.30;;;15.20;72.40;;;;;;5012995;28;20416;-83
2022/02/17 12:04:22;;;;;;;5.57;2.10;;;16.00;70.00;;;;;;5012545;28;20512;-85
2022/02/17 12:06:53;;;;;;;5.50;2.23;;;15.90;71.20;;;;;;5013676;28;20442;-84
2022/02/17 12:09:43;;;;;;;9.10;2.57;;;17.40;70.30;;;;;;5012618;28;20515;-85
2022/02/17 12:12:12;;;;;;;6.60;2.03;;;18.20;67.80;;;;;;5012779;28;20870;-84
2022/02/17 12:14:38;;;;;;;5.23;2.40;;;18.90;59.40;;;;;;5012335;28;20450;-85
2022/02/17 12:17:07;;;;;;;8.07;2.17;;;19.10;56.20;;;;;;5013747;28;20462;-85
2022/02/17 12:19:33;;;;;;;4.80;2.10;;;18.80;56.60;;;;;;5030779;28;20423;-85
2022/02/17 12:22:11;;;;;;;5.87;1.67;;;19.40;56.40;;;;;;5031099;28;20864;-87
2022/02/17 12:24:42;;;;;;;10.60;3.00;;;19.30;56.20;;;;;;5029968;28;20412;-87
2022/02/17 12:27:18;;;;;;;4.60;1.97;;;18.50;56.70;;;;;;5029382;28;20427;-87
2022/02/17 12:29:44;;;;;;;4.60;1.40;;;17.10;59.60;;;;;;5031951;28;20906;-87
2022/02/17 12:32:18;;;;;;;5.10;1.70;;;16.00;64.00;;;;;;5031427;28;20502;-86
2022/02/17 12:34:44;;;;;;;6.13;2.30;;;14.90;69.10;;;;;;5032775;28;20184;-87
2022/02/17 12:37:20;;;;;;;9.20;2.17;;;14.80;74.30;;;;;;5033105;28;20838;-86
2022/02/17 12:39:54;;;;;;;5.30;2.17;;;15.10;73.40;;;;;;5034377;28;20433;-85
2022/02/17 12:42:21;;;;;;;4.80;1.77;;;14.90;72.90;;;;;;5032748;28;20438;-84
2022/02/17 12:44:51;;;;;;;5.23;2.07;;;15.30;76.30;;;;;;5033478;28;20487;-84
2022/02/17 12:47:17;;;;;;;4.03;2.00;;;15.70;68.50;;;;;;5032969;28;20425;-85
2022/02/17 12:49:42;;;;;;;9.97;2.60;;;15.10;71.10;;;;;;5033399;28;20419;-84
2022/02/17 12:52:16;;;;;;;9.40;2.00;;;14.40;77.00;;;;;;5032783;28;20786;-84